createdAt,value
2017-08-05T00:00:25.808Z,68.57
2017-08-05T00:00:51.920Z,68.57
2017-08-05T00:01:18.057Z,68.67
2017-08-05T00:01:44.206Z,68.67
2017-08-05T00:02:10.371Z,68.57
2017-08-05T00:02:36.528Z,68.67
2017-08-05T00:03:02.682Z,68.86
2017-08-05T00:03:28.772Z,69.24
2017-08-05T00:03:54.929Z,68.76
2017-08-05T00:04:21.066Z,68.48
2017-08-05T00:04:47.239Z,68.76
2017-08-05T00:05:13.334Z,68.48
2017-08-05T00:05:39.473Z,68.57
2017-08-05T00:06:05.630Z,68.76
2017-08-05T00:06:31.757Z,68.76
2017-08-05T00:06:57.944Z,69.24
2017-08-05T00:07:24.073Z,69.06
2017-08-05T00:07:50.260Z,69.15
2017-08-05T00:08:16.372Z,69.34
2017-08-05T00:08:42.519Z,69.34
2017-08-05T00:09:08.651Z,69.34
2017-08-05T00:09:34.742Z,69.24
2017-08-05T00:10:00.887Z,69.06
2017-08-05T00:10:27.010Z,68.76
2017-08-05T00:10:53.167Z,68.29
2017-08-05T00:11:19.329Z,68.57
2017-08-05T00:11:45.465Z,68.67
2017-08-05T00:12:11.616Z,68.67
2017-08-05T00:12:37.748Z,68.67
2017-08-05T00:13:03.886Z,68.86
2017-08-05T00:13:30.011Z,68.48
2017-08-05T00:13:56.172Z,68.67
2017-08-05T00:14:22.290Z,68.48
2017-08-05T00:14:48.429Z,68.48
2017-08-05T00:15:14.618Z,68.86
2017-08-05T00:15:40.738Z,69.24
2017-08-05T00:16:06.867Z,69.44
2017-08-05T00:16:33.034Z,69.34
2017-08-05T00:16:59.179Z,68.96
2017-08-05T00:17:25.284Z,68.57
2017-08-05T00:17:51.400Z,68.57
2017-08-05T00:18:17.514Z,68.86
2017-08-05T00:18:43.678Z,68.67
2017-08-05T00:19:09.855Z,68.76
2017-08-05T00:19:35.968Z,68.76
2017-08-05T00:20:02.180Z,68.67
2017-08-05T00:20:28.334Z,68.67
2017-08-05T00:20:54.521Z,68.76
2017-08-05T00:21:20.675Z,68.86
2017-08-05T00:21:46.791Z,68.57
2017-08-05T00:22:12.924Z,68.48
2017-08-05T00:22:39.046Z,69.12
2017-08-05T00:23:05.164Z,68.57
2017-08-05T00:23:31.292Z,68.35
2017-08-05T00:23:57.443Z,69.21
2017-08-05T00:24:23.535Z,69.44
2017-08-05T00:24:49.635Z,69.21
2017-08-05T00:25:15.824Z,69.06
2017-08-05T00:25:41.957Z,68.48
2017-08-05T00:26:08.084Z,68.73
2017-08-05T00:26:34.188Z,69.31
2017-08-05T00:27:00.302Z,68.73
2017-08-05T00:27:26.403Z,68.63
2017-08-05T00:27:52.545Z,68.44
2017-08-05T00:28:18.698Z,68.54
2017-08-05T00:28:44.829Z,68.63
2017-08-05T00:29:10.967Z,68.73
2017-08-05T00:29:37.090Z,68.54
2017-08-05T00:30:03.248Z,68.48
2017-08-05T00:30:29.387Z,68.67
2017-08-05T00:30:55.531Z,68.48
2017-08-05T00:31:21.664Z,68.63
2017-08-05T00:31:47.812Z,68.48
2017-08-05T00:32:13.901Z,68.86
2017-08-05T00:32:40.054Z,69.02
2017-08-05T00:33:06.176Z,68.76
2017-08-05T00:33:32.282Z,68.57
2017-08-05T00:33:58.445Z,68.48
2017-08-05T00:34:24.564Z,68.86
2017-08-05T00:34:50.726Z,68.54
2017-08-05T00:35:16.874Z,68.54
2017-08-05T00:35:42.984Z,68.63
2017-08-05T00:36:09.116Z,68.92
2017-08-05T00:36:35.265Z,68.83
2017-08-05T00:37:01.407Z,68.92
2017-08-05T00:37:27.510Z,68.83
2017-08-05T00:37:53.665Z,68.83
2017-08-05T00:38:19.818Z,68.63
2017-08-05T00:38:45.911Z,69.21
2017-08-05T00:39:12.001Z,69.31
2017-08-05T00:39:38.159Z,69.4
2017-08-05T00:40:04.283Z,69.31
2017-08-05T00:40:30.400Z,69.21
2017-08-05T00:40:56.505Z,69.21
2017-08-05T00:41:22.631Z,69.21
2017-08-05T00:41:48.723Z,69.31
2017-08-05T00:42:14.849Z,69.31
2017-08-05T00:42:40.956Z,69.31
2017-08-05T00:43:07.090Z,69.21
2017-08-05T00:43:33.217Z,69.31
2017-08-05T00:43:59.378Z,69.4
2017-08-05T00:44:25.493Z,69.21
2017-08-05T00:44:51.639Z,69.31
2017-08-05T00:45:17.799Z,69.4
2017-08-05T00:45:43.917Z,69.12
2017-08-05T00:46:10.027Z,69.21
2017-08-05T00:46:36.191Z,69.02
2017-08-05T00:47:02.335Z,69.31
2017-08-05T00:47:28.448Z,69.69
2017-08-05T00:47:54.638Z,69.37
2017-08-05T00:48:20.792Z,69.66
2017-08-05T00:48:46.931Z,69.5
2017-08-05T00:49:13.059Z,69.79
2017-08-05T00:49:39.204Z,69.75
2017-08-05T00:50:05.338Z,69.69
2017-08-05T00:50:31.462Z,69.27
2017-08-05T00:50:57.600Z,69.85
2017-08-05T00:51:23.734Z,69.75
2017-08-05T00:51:49.887Z,69.85
2017-08-05T00:52:16.008Z,69.95
2017-08-05T00:52:42.154Z,69.85
2017-08-05T00:53:08.346Z,69.18
2017-08-05T00:53:34.431Z,69.85
2017-08-05T00:54:00.582Z,70.23
2017-08-05T00:54:26.714Z,69.89
2017-08-05T00:54:52.830Z,70.07
2017-08-05T00:55:18.985Z,69.95
2017-08-05T00:55:45.127Z,69.98
2017-08-05T00:56:11.281Z,69.75
2017-08-05T00:56:37.438Z,69.89
2017-08-05T00:57:03.526Z,69.85
2017-08-05T00:57:29.675Z,70.04
2017-08-05T00:57:55.808Z,70.07
2017-08-05T00:58:21.897Z,69.95
2017-08-05T00:58:48.040Z,69.69
2017-08-05T00:59:14.201Z,69.46
2017-08-05T00:59:40.347Z,69.46
2017-08-05T01:00:06.510Z,70.04
2017-08-05T01:00:32.612Z,70.04
2017-08-05T01:00:58.738Z,70.04
2017-08-05T01:01:24.929Z,70.23
2017-08-05T01:01:51.071Z,69.75
2017-08-05T01:02:17.216Z,69.85
2017-08-05T01:02:43.378Z,69.85
2017-08-05T01:03:09.546Z,69.37
2017-08-05T01:03:35.686Z,69.37
2017-08-05T01:04:01.845Z,69.37
2017-08-05T01:04:27.941Z,69.27
2017-08-05T01:04:54.128Z,69.37
2017-08-05T01:05:20.261Z,69.75
2017-08-05T01:05:46.414Z,69.18
2017-08-05T01:06:12.540Z,69.37
2017-08-05T01:06:38.655Z,69.46
2017-08-05T01:07:04.771Z,69.75
2017-08-05T01:07:30.900Z,69.85
2017-08-05T01:07:57.030Z,69.66
2017-08-05T01:08:23.166Z,69.37
2017-08-05T01:08:49.322Z,69.75
2017-08-05T01:09:15.447Z,69.85
2017-08-05T01:09:41.567Z,69.85
2017-08-05T01:10:07.692Z,69.85
2017-08-05T01:10:33.823Z,70.04
2017-08-05T01:10:59.936Z,69.37
2017-08-05T01:11:26.084Z,69.37
2017-08-05T01:11:52.256Z,70.04
2017-08-05T01:12:18.418Z,69.85
2017-08-05T01:12:44.544Z,70.14
2017-08-05T01:13:10.660Z,70.23
2017-08-05T01:13:36.810Z,70.33
2017-08-05T01:14:03.027Z,70.04
2017-08-05T01:14:29.112Z,70.04
2017-08-05T01:14:55.291Z,70.14
2017-08-05T01:15:21.450Z,70.72
2017-08-05T01:15:47.562Z,70.33
2017-08-05T01:16:13.731Z,70.43
2017-08-05T01:16:39.864Z,70.33
2017-08-05T01:17:05.987Z,70.23
2017-08-05T01:17:32.200Z,70.33
2017-08-05T01:17:58.314Z,70.33
2017-08-05T01:18:24.459Z,70.43
2017-08-05T01:18:50.591Z,70.52
2017-08-05T01:19:16.733Z,70.52
2017-08-05T01:19:42.851Z,70.62
2017-08-05T01:20:08.984Z,70.52
2017-08-05T01:20:35.160Z,70.33
2017-08-05T01:21:01.277Z,70.23
2017-08-05T01:21:27.438Z,70.04
2017-08-05T01:21:53.558Z,70.33
2017-08-05T01:22:19.724Z,70.14
2017-08-05T01:22:45.932Z,70.23
2017-08-05T01:23:12.073Z,70.33
2017-08-05T01:23:38.236Z,70.43
2017-08-05T01:24:04.376Z,70.52
2017-08-05T01:24:30.538Z,70.62
2017-08-05T01:24:56.702Z,69.95
2017-08-05T01:25:22.852Z,69.85
2017-08-05T01:25:48.964Z,70.04
2017-08-05T01:26:15.095Z,69.95
2017-08-05T01:26:41.275Z,69.85
2017-08-05T01:27:07.439Z,69.66
2017-08-05T01:27:33.642Z,69.95
2017-08-05T01:27:59.771Z,69.95
2017-08-05T01:28:25.957Z,69.75
2017-08-05T01:28:52.106Z,70.04
2017-08-05T01:29:18.294Z,70.04
2017-08-05T01:29:44.434Z,69.66
2017-08-05T01:30:10.579Z,70.23
2017-08-05T01:30:36.739Z,69.85
2017-08-05T01:31:02.910Z,70.62
2017-08-05T01:31:29.049Z,69.56
2017-08-05T01:31:55.266Z,68.98
2017-08-05T01:32:21.362Z,68.98
2017-08-05T01:32:47.450Z,69.56
2017-08-05T01:33:13.634Z,69.56
2017-08-05T01:33:39.758Z,70.04
2017-08-05T01:34:05.907Z,69.27
2017-08-05T01:34:32.052Z,69.56
2017-08-05T01:34:58.169Z,68.98
2017-08-05T01:35:24.331Z,69.56
2017-08-05T01:35:50.428Z,69.37
2017-08-05T01:36:16.541Z,69.27
2017-08-05T01:36:42.675Z,69.37
2017-08-05T01:37:08.803Z,69.18
2017-08-05T01:37:34.917Z,68.98
2017-08-05T01:38:01.044Z,68.89
2017-08-05T01:38:27.232Z,68.89
2017-08-05T01:38:53.397Z,69.56
2017-08-05T01:39:19.518Z,69.56
2017-08-05T01:39:45.614Z,69.66
2017-08-05T01:40:11.801Z,69.46
2017-08-05T01:40:37.898Z,69.66
2017-08-05T01:41:04.013Z,68.89
2017-08-05T01:41:30.143Z,69.18
2017-08-05T01:41:56.304Z,69.24
2017-08-05T01:42:22.392Z,69.66
2017-08-05T01:42:48.519Z,69.37
2017-08-05T01:43:14.650Z,69.62
2017-08-05T01:43:40.818Z,69.62
2017-08-05T01:44:06.937Z,69.66
2017-08-05T01:44:33.075Z,69.66
2017-08-05T01:44:59.215Z,69.62
2017-08-05T01:45:25.349Z,70.01
2017-08-05T01:45:51.482Z,69.72
2017-08-05T01:46:17.636Z,69.81
2017-08-05T01:46:43.798Z,69.62
2017-08-05T01:47:09.935Z,69.95
2017-08-05T01:47:36.079Z,69.91
2017-08-05T01:48:02.236Z,69.72
2017-08-05T01:48:28.352Z,69.81
2017-08-05T01:48:54.468Z,70.29
2017-08-05T01:49:20.628Z,69.81
2017-08-05T01:49:46.780Z,70.49
2017-08-05T01:50:12.943Z,70.04
2017-08-05T01:50:39.101Z,69.43
2017-08-05T01:51:05.220Z,69.91
2017-08-05T01:51:31.380Z,70.2
2017-08-05T01:51:57.551Z,69.81
2017-08-05T01:52:23.664Z,70.58
2017-08-05T01:52:49.773Z,70.04
2017-08-05T01:53:15.926Z,70.2
2017-08-05T01:53:42.039Z,70.14
2017-08-05T01:54:08.175Z,69.91
2017-08-05T01:54:34.326Z,69.91
2017-08-05T01:55:00.422Z,70.58
2017-08-05T01:55:26.570Z,70.68
2017-08-05T01:55:52.701Z,70.68
2017-08-05T01:56:18.841Z,70.29
2017-08-05T01:56:44.964Z,70.01
2017-08-05T01:57:11.126Z,69.91
2017-08-05T01:57:37.284Z,70.1
2017-08-05T01:58:03.410Z,70.2
2017-08-05T01:58:29.525Z,71.06
2017-08-05T01:58:55.653Z,70.68
2017-08-05T01:59:21.785Z,70.87
2017-08-05T01:59:47.974Z,70.97
2017-08-05T02:00:14.122Z,70.97
2017-08-05T02:00:40.255Z,70.68
2017-08-05T02:01:06.396Z,70.78
2017-08-05T02:01:32.543Z,70.68
2017-08-05T02:01:58.695Z,70.87
2017-08-05T02:02:24.844Z,70.87
2017-08-05T02:02:51.002Z,71.25
2017-08-05T02:03:17.135Z,71.45
2017-08-05T02:03:43.261Z,71.16
2017-08-05T02:04:09.422Z,71.16
2017-08-05T02:04:35.511Z,71.35
2017-08-05T02:05:01.628Z,70.78
2017-08-05T02:05:27.817Z,71.06
2017-08-05T02:05:53.938Z,70.39
2017-08-05T02:06:20.028Z,70.78
2017-08-05T02:06:46.214Z,71.06
2017-08-05T02:07:12.364Z,70.97
2017-08-05T02:07:38.490Z,71.06
2017-08-05T02:08:04.577Z,71.55
2017-08-05T02:08:30.747Z,71.16
2017-08-05T02:08:56.962Z,71.06
2017-08-05T02:09:23.100Z,70.87
2017-08-05T02:09:49.190Z,71.25
2017-08-05T02:10:15.300Z,70.87
2017-08-05T02:10:41.449Z,70.97
2017-08-05T02:11:07.586Z,70.87
2017-08-05T02:11:33.745Z,70.87
2017-08-05T02:11:59.844Z,70.97
2017-08-05T02:12:26.008Z,70.97
2017-08-05T02:12:52.134Z,70.97
2017-08-05T02:13:18.266Z,70.87
2017-08-05T02:13:44.352Z,70.68
2017-08-05T02:14:10.451Z,70.87
2017-08-05T02:14:36.558Z,70.87
2017-08-05T02:15:02.723Z,70.29
2017-08-05T02:15:28.893Z,70.58
2017-08-05T02:15:55.053Z,70.2
2017-08-05T02:16:21.147Z,70.14
2017-08-05T02:16:47.284Z,70.29
2017-08-05T02:17:13.392Z,70.2
2017-08-05T02:17:39.541Z,70.29
2017-08-05T02:18:05.656Z,70.58
2017-08-05T02:18:31.841Z,70.01
2017-08-05T02:18:57.983Z,70.01
2017-08-05T02:19:24.114Z,70.58
2017-08-05T02:19:50.229Z,71.35
2017-08-05T02:20:16.364Z,71.06
2017-08-05T02:20:42.471Z,70.87
2017-08-05T02:21:08.565Z,71.06
2017-08-05T02:21:34.680Z,70.78
2017-08-05T02:22:00.811Z,70.68
2017-08-05T02:22:26.938Z,70.87
2017-08-05T02:22:53.025Z,71.06
2017-08-05T02:23:19.153Z,70.78
2017-08-05T02:23:45.339Z,70.78
2017-08-05T02:24:11.482Z,71.06
2017-08-05T02:24:37.609Z,70.9
2017-08-05T02:25:03.721Z,71.06
2017-08-05T02:25:29.877Z,70.87
2017-08-05T02:25:56.002Z,70.78
2017-08-05T02:26:22.115Z,70.87
2017-08-05T02:26:48.247Z,71.45
2017-08-05T02:27:14.353Z,71.16
2017-08-05T02:27:40.438Z,72.02
2017-08-05T02:28:06.581Z,71.83
2017-08-05T02:28:32.714Z,71.83
2017-08-05T02:28:58.826Z,71.83
2017-08-05T02:29:24.951Z,72.02
2017-08-05T02:29:51.046Z,72.22
2017-08-05T02:30:17.247Z,72.69
2017-08-05T02:30:43.436Z,72.12
2017-08-05T02:31:09.573Z,72.6
2017-08-05T02:31:35.740Z,72.5
2017-08-05T02:32:01.845Z,72.37
2017-08-05T02:32:28.010Z,72.75
2017-08-05T02:32:54.154Z,72.66
2017-08-05T02:33:20.317Z,72.79
2017-08-05T02:33:46.460Z,72.66
2017-08-05T02:34:12.626Z,72.79
2017-08-05T02:34:38.759Z,71.93
2017-08-05T02:35:04.938Z,72.22
2017-08-05T02:35:31.092Z,72.12
2017-08-05T02:35:57.181Z,72.89
2017-08-05T02:36:23.303Z,72.31
2017-08-05T02:36:49.466Z,72.41
2017-08-05T02:37:15.607Z,72.41
2017-08-05T02:37:41.773Z,72.12
2017-08-05T02:38:07.907Z,72.02
2017-08-05T02:38:34.030Z,71.93
2017-08-05T02:39:00.198Z,72.12
2017-08-05T02:39:26.384Z,72.5
2017-08-05T02:39:52.595Z,72.6
2017-08-05T02:40:18.757Z,72.69
2017-08-05T02:40:44.936Z,72.79
2017-08-05T02:41:11.098Z,72.5
2017-08-05T02:41:37.310Z,72.69
2017-08-05T02:42:03.510Z,72.79
2017-08-05T02:42:29.651Z,71.93
2017-08-05T02:42:55.834Z,72.12
2017-08-05T02:43:22.042Z,72.12
2017-08-05T02:43:48.206Z,72.69
2017-08-05T02:44:15.829Z,72.08
2017-08-05T02:44:41.988Z,72.89
2017-08-05T02:45:08.176Z,72.79
2017-08-05T02:45:34.323Z,72.6
2017-08-05T02:46:00.539Z,72.79
2017-08-05T02:46:26.672Z,72.69
2017-08-05T02:46:52.853Z,72.6
2017-08-05T02:47:19.042Z,72.79
2017-08-05T02:47:45.197Z,72.6
2017-08-05T02:48:11.415Z,72.5
2017-08-05T02:48:37.523Z,72.6
2017-08-05T02:49:03.697Z,72.5
2017-08-05T02:49:29.824Z,72.5
2017-08-05T02:49:56.020Z,72.5
2017-08-05T02:50:22.166Z,72.5
2017-08-05T02:50:48.415Z,72.41
2017-08-05T02:51:14.591Z,72.56
2017-08-05T02:51:40.762Z,72.6
2017-08-05T02:52:06.941Z,72.89
2017-08-05T02:52:33.116Z,72.79
2017-08-05T02:52:59.302Z,72.6
2017-08-05T02:53:25.413Z,72.6
2017-08-05T02:53:51.554Z,72.79
2017-08-05T02:54:17.742Z,73.08
2017-08-05T02:54:43.851Z,72.89
2017-08-05T02:55:09.990Z,72.89
2017-08-05T02:55:36.144Z,72.99
2017-08-05T02:56:02.352Z,72.99
2017-08-05T02:56:28.544Z,72.79
2017-08-05T02:56:54.702Z,72.41
2017-08-05T02:57:20.819Z,73.08
2017-08-05T02:57:46.927Z,72.99
2017-08-05T02:58:13.084Z,73.18
2017-08-05T02:58:39.238Z,73.04
2017-08-05T02:59:05.404Z,73.62
2017-08-05T02:59:31.519Z,73.52
2017-08-05T02:59:57.739Z,73.14
2017-08-05T03:00:23.874Z,73.52
2017-08-05T03:00:50.048Z,73.62
2017-08-05T03:01:16.204Z,73.62
2017-08-05T03:01:42.344Z,73.62
2017-08-05T03:02:08.511Z,73.94
2017-08-05T03:02:34.664Z,73.56
2017-08-05T03:03:00.810Z,73.66
2017-08-05T03:03:26.962Z,73.52
2017-08-05T03:03:53.130Z,73.62
2017-08-05T03:04:19.382Z,73.56
2017-08-05T03:04:45.568Z,73.46
2017-08-05T03:05:11.784Z,73.94
2017-08-05T03:05:37.902Z,73.46
2017-08-05T03:06:04.148Z,73.75
2017-08-05T03:06:30.294Z,72.99
2017-08-05T03:06:56.429Z,72.79
2017-08-05T03:07:22.606Z,72.89
2017-08-05T03:07:48.787Z,73.18
2017-08-05T03:08:14.923Z,73.18
2017-08-05T03:08:41.078Z,73.08
2017-08-05T03:09:07.245Z,72.89
2017-08-05T03:09:33.374Z,72.89
2017-08-05T03:09:59.515Z,73.56
2017-08-05T03:10:25.681Z,73.46
2017-08-05T03:10:51.807Z,73.46
2017-08-05T03:11:17.990Z,73.46
2017-08-05T03:11:44.183Z,73.62
2017-08-05T03:12:10.367Z,73.56
2017-08-05T03:12:36.584Z,73.66
2017-08-05T03:13:02.689Z,73.66
2017-08-05T03:13:28.920Z,73.66
2017-08-05T03:13:55.042Z,73.94
2017-08-05T03:14:21.210Z,73.85
2017-08-05T03:14:47.391Z,73.56
2017-08-05T03:15:13.525Z,73.56
2017-08-05T03:15:39.869Z,73.46
2017-08-05T03:16:06.058Z,73.37
2017-08-05T03:16:32.222Z,73.66
2017-08-05T03:16:58.398Z,73.85
2017-08-05T03:17:24.584Z,73.94
2017-08-05T03:17:50.754Z,73.66
2017-08-05T03:18:16.953Z,73.75
2017-08-05T03:18:43.113Z,73.56
2017-08-05T03:19:09.282Z,73.94
2017-08-05T03:19:35.444Z,73.85
2017-08-05T03:20:01.584Z,73.66
2017-08-05T03:20:27.764Z,73.43
2017-08-05T03:20:53.887Z,73.56
2017-08-05T03:21:20.052Z,73.52
2017-08-05T03:21:46.280Z,73.56
2017-08-05T03:22:12.465Z,73.52
2017-08-05T03:22:38.660Z,73.91
2017-08-05T03:23:04.824Z,74.1
2017-08-05T03:23:31.011Z,74.01
2017-08-05T03:23:57.188Z,74.01
2017-08-05T03:24:23.354Z,74.58
2017-08-05T03:24:49.536Z,74.58
2017-08-05T03:25:15.716Z,73.43
2017-08-05T03:25:41.923Z,73.66
2017-08-05T03:26:08.034Z,73.66
2017-08-05T03:26:34.227Z,73.62
2017-08-05T03:27:00.449Z,73.91
2017-08-05T03:27:26.658Z,73.66
2017-08-05T03:27:52.794Z,73.37
2017-08-05T03:28:18.976Z,73.85
2017-08-05T03:28:45.124Z,73.56
2017-08-05T03:29:11.318Z,73.46
2017-08-05T03:29:37.438Z,73.85
2017-08-05T03:30:03.593Z,73.85
2017-08-05T03:30:29.847Z,73.66
2017-08-05T03:30:56.049Z,73.66
2017-08-05T03:31:22.285Z,73.46
2017-08-05T03:31:48.437Z,73.66
2017-08-05T03:32:14.686Z,73.66
2017-08-05T03:32:40.821Z,73.66
2017-08-05T03:33:07.003Z,73.56
2017-08-05T03:33:33.157Z,73.66
2017-08-05T03:33:59.320Z,73.56
2017-08-05T03:34:25.493Z,73.46
2017-08-05T03:34:51.683Z,73.46
2017-08-05T03:35:17.821Z,73.43
2017-08-05T03:35:43.964Z,73.75
2017-08-05T03:36:10.152Z,73.46
2017-08-05T03:36:36.292Z,73.27
2017-08-05T03:37:02.422Z,73.46
2017-08-05T03:37:28.579Z,73.66
2017-08-05T03:37:54.758Z,73.46
2017-08-05T03:38:20.912Z,72.99
2017-08-05T03:38:47.082Z,72.99
2017-08-05T03:39:13.222Z,73.18
2017-08-05T03:39:39.376Z,72.99
2017-08-05T03:40:05.484Z,73.08
2017-08-05T03:40:31.650Z,73.08
2017-08-05T03:40:57.838Z,72.89
2017-08-05T03:41:24.079Z,72.99
2017-08-05T03:41:50.243Z,73.46
2017-08-05T03:42:16.396Z,73.56
2017-08-05T03:42:42.515Z,73.56
2017-08-05T03:43:08.651Z,73.37
2017-08-05T03:43:34.771Z,73.43
2017-08-05T03:44:00.955Z,73.37
2017-08-05T03:44:27.090Z,73.75
2017-08-05T03:44:53.269Z,73.66
2017-08-05T03:45:19.514Z,73.66
2017-08-05T03:45:45.681Z,73.66
2017-08-05T03:46:11.852Z,73.46
2017-08-05T03:46:38.043Z,73.37
2017-08-05T03:47:04.240Z,73.46
2017-08-05T03:47:30.401Z,73.46
2017-08-05T03:47:56.579Z,73.66
2017-08-05T03:48:22.724Z,73.56
2017-08-05T03:48:48.849Z,73.66
2017-08-05T03:49:14.989Z,73.66
2017-08-05T03:49:41.157Z,73.66
2017-08-05T03:50:07.311Z,73.66
2017-08-05T03:50:33.489Z,73.27
2017-08-05T03:50:59.624Z,73.75
2017-08-05T03:51:25.786Z,72.79
2017-08-05T03:51:51.965Z,72.79
2017-08-05T03:52:18.076Z,73.08
2017-08-05T03:52:44.230Z,72.89
2017-08-05T03:53:10.444Z,73.18
2017-08-05T03:53:36.676Z,73.27
2017-08-05T03:54:02.851Z,73.27
2017-08-05T03:54:29.015Z,72.54
2017-08-05T03:54:55.172Z,72.6
2017-08-05T03:55:21.375Z,72.34
2017-08-05T03:55:47.516Z,72.83
2017-08-05T03:56:13.643Z,73.02
2017-08-05T03:56:39.792Z,72.73
2017-08-05T03:57:05.989Z,72.6
2017-08-05T03:57:32.197Z,72.41
2017-08-05T03:57:58.348Z,72.64
2017-08-05T03:58:24.479Z,72.83
2017-08-05T03:58:50.654Z,72.73
2017-08-05T03:59:16.824Z,73.02
2017-08-05T03:59:43.008Z,72.73
2017-08-05T04:00:09.189Z,72.34
2017-08-05T04:00:35.331Z,72.54
2017-08-05T04:01:01.476Z,71.96
2017-08-05T04:01:27.656Z,73.08
2017-08-05T04:01:53.816Z,72.6
2017-08-05T04:02:19.993Z,72.79
2017-08-05T04:02:46.152Z,72.99
2017-08-05T04:03:12.289Z,73.46
2017-08-05T04:03:38.459Z,72.99
2017-08-05T04:04:04.675Z,73.08
2017-08-05T04:04:30.887Z,73.18
2017-08-05T04:04:57.071Z,73.08
2017-08-05T04:05:23.233Z,73.11
2017-08-05T04:05:49.416Z,72.79
2017-08-05T04:06:15.539Z,72.92
2017-08-05T04:06:41.740Z,72.83
2017-08-05T04:07:07.904Z,73.02
2017-08-05T04:07:34.063Z,73.21
2017-08-05T04:08:00.199Z,72.54
2017-08-05T04:08:26.398Z,72.64
2017-08-05T04:08:52.583Z,72.64
2017-08-05T04:09:18.758Z,72.64
2017-08-05T04:09:44.895Z,72.64
2017-08-05T04:10:11.050Z,72.73
2017-08-05T04:10:37.220Z,73.02
2017-08-05T04:11:03.441Z,72.54
2017-08-05T04:11:29.643Z,72.92
2017-08-05T04:11:55.776Z,72.92
2017-08-05T04:12:22.031Z,72.73
2017-08-05T04:12:48.205Z,72.64
2017-08-05T04:13:14.400Z,72.44
2017-08-05T04:13:40.556Z,72.16
2017-08-05T04:14:06.741Z,71.96
2017-08-05T04:14:32.877Z,72.54
2017-08-05T04:14:59.091Z,72.34
2017-08-05T04:15:25.249Z,72.16
2017-08-05T04:15:51.420Z,72.44
2017-08-05T04:16:17.662Z,72.34
2017-08-05T04:16:43.795Z,72.83
2017-08-05T04:17:09.951Z,72.64
2017-08-05T04:17:36.165Z,72.64
2017-08-05T04:18:02.304Z,73.02
2017-08-05T04:18:28.480Z,72.73
2017-08-05T04:18:54.640Z,73.11
2017-08-05T04:19:20.801Z,73.31
2017-08-05T04:19:46.921Z,73.02
2017-08-05T04:20:13.134Z,73.08
2017-08-05T04:20:39.274Z,73.02
2017-08-05T04:21:05.412Z,73.11
2017-08-05T04:21:31.557Z,73.69
2017-08-05T04:21:57.702Z,73.6
2017-08-05T04:22:23.860Z,73.41
2017-08-05T04:22:50.023Z,72.92
2017-08-05T04:23:16.261Z,73.11
2017-08-05T04:23:42.447Z,72.83
2017-08-05T04:24:08.617Z,73.6
2017-08-05T04:24:34.761Z,73.11
2017-08-05T04:25:00.919Z,73.02
2017-08-05T04:25:27.032Z,73.21
2017-08-05T04:25:53.167Z,73.6
2017-08-05T04:26:19.297Z,73.46
2017-08-05T04:26:45.504Z,73.75
2017-08-05T04:27:11.609Z,73.11
2017-08-05T04:27:37.771Z,73.31
2017-08-05T04:28:03.914Z,72.83
2017-08-05T04:28:30.051Z,73.31
2017-08-05T04:28:56.205Z,72.92
2017-08-05T04:29:22.363Z,73.02
2017-08-05T04:29:48.531Z,73.31
2017-08-05T04:30:14.761Z,73.31
2017-08-05T04:30:40.920Z,72.54
2017-08-05T04:31:07.116Z,72.54
2017-08-05T04:31:33.286Z,72.54
2017-08-05T04:31:59.475Z,72.64
2017-08-05T04:32:25.624Z,73.02
2017-08-05T04:32:51.813Z,73.21
2017-08-05T04:33:17.952Z,72.83
2017-08-05T04:33:44.098Z,72.64
2017-08-05T04:34:10.225Z,73.02
2017-08-05T04:34:36.363Z,72.64
2017-08-05T04:35:02.540Z,72.83
2017-08-05T04:35:28.726Z,72.83
2017-08-05T04:35:54.865Z,72.64
2017-08-05T04:36:21.032Z,72.54
2017-08-05T04:36:47.189Z,72.54
2017-08-05T04:37:13.306Z,72.54
2017-08-05T04:37:39.439Z,73.21
2017-08-05T04:38:05.600Z,72.83
2017-08-05T04:38:31.774Z,73.69
2017-08-05T04:38:58.030Z,73.66
2017-08-05T04:39:24.165Z,73.56
2017-08-05T04:39:50.330Z,73.56
2017-08-05T04:40:16.517Z,73.85
2017-08-05T04:40:42.663Z,73.79
2017-08-05T04:41:08.799Z,73.5
2017-08-05T04:41:34.989Z,73.56
2017-08-05T04:42:01.166Z,73.75
2017-08-05T04:42:27.306Z,74.43
2017-08-05T04:42:53.465Z,74.43
2017-08-05T04:43:19.617Z,74.43
2017-08-05T04:43:45.761Z,74.33
2017-08-05T04:44:11.912Z,74.33
2017-08-05T04:44:38.023Z,74.23
2017-08-05T04:45:04.177Z,74.23
2017-08-05T04:45:30.294Z,74.13
2017-08-05T04:45:56.487Z,74.04
2017-08-05T04:46:22.639Z,74.04
2017-08-05T04:46:48.791Z,74.71
2017-08-05T04:47:14.923Z,74.33
2017-08-05T04:47:41.038Z,74.04
2017-08-05T04:48:07.194Z,74.13
2017-08-05T04:48:33.382Z,74.33
2017-08-05T04:48:59.526Z,74.13
2017-08-05T04:49:25.746Z,74.81
2017-08-05T04:49:51.919Z,74.81
2017-08-05T04:50:18.085Z,74.71
2017-08-05T04:50:44.278Z,74.52
2017-08-05T04:51:10.418Z,74.62
2017-08-05T04:51:36.526Z,74.23
2017-08-05T04:52:02.681Z,74.13
2017-08-05T04:52:28.830Z,74.65
2017-08-05T04:52:54.993Z,74.62
2017-08-05T04:53:21.169Z,74.62
2017-08-05T04:53:47.358Z,74.71
2017-08-05T04:54:13.551Z,74.55
2017-08-05T04:54:39.733Z,74.27
2017-08-05T04:55:05.844Z,74.37
2017-08-05T04:55:31.996Z,74.17
2017-08-05T04:55:58.175Z,74.37
2017-08-05T04:56:24.370Z,74.08
2017-08-05T04:56:50.577Z,74.33
2017-08-05T04:57:16.732Z,75.13
2017-08-05T04:57:42.867Z,75.48
2017-08-05T04:58:09.043Z,75.38
2017-08-05T04:58:35.224Z,75.57
2017-08-05T04:59:01.363Z,75.77
2017-08-05T04:59:27.537Z,75.48
2017-08-05T04:59:53.661Z,75.29
2017-08-05T05:00:19.774Z,75.67
2017-08-05T05:00:45.957Z,75.77
2017-08-05T05:01:12.092Z,76.54
2017-08-05T05:01:38.322Z,76.25
2017-08-05T05:02:04.448Z,76.25
2017-08-05T05:02:30.617Z,76.73
2017-08-05T05:02:56.786Z,76.44
2017-08-05T05:03:22.955Z,76.82
2017-08-05T05:03:49.126Z,76.73
2017-08-05T05:04:15.317Z,76.44
2017-08-05T05:04:41.445Z,76.82
2017-08-05T05:05:07.615Z,76.73
2017-08-05T05:05:33.750Z,76.82
2017-08-05T05:05:59.908Z,76.64
2017-08-05T05:06:26.141Z,77.01
2017-08-05T05:06:52.326Z,77.11
2017-08-05T05:07:18.466Z,76.73
2017-08-05T05:07:44.574Z,77.01
2017-08-05T05:08:10.726Z,76.92
2017-08-05T05:08:36.842Z,76.82
2017-08-05T05:09:02.977Z,77.01
2017-08-05T05:09:29.136Z,76.92
2017-08-05T05:09:55.315Z,76.92
2017-08-05T05:10:21.507Z,76.82
2017-08-05T05:10:47.718Z,77.31
2017-08-05T05:11:13.904Z,77.5
2017-08-05T05:11:40.101Z,77.59
2017-08-05T05:12:06.276Z,77.31
2017-08-05T05:12:32.500Z,77.31
2017-08-05T05:12:58.671Z,77.21
2017-08-05T05:13:24.788Z,77.31
2017-08-05T05:13:50.910Z,77.4
2017-08-05T05:14:17.018Z,77.59
2017-08-05T05:14:43.127Z,77.4
2017-08-05T05:15:09.346Z,76.82
2017-08-05T05:15:35.526Z,76.82
2017-08-05T05:16:01.684Z,77.01
2017-08-05T05:16:27.810Z,77.01
2017-08-05T05:16:53.955Z,77.01
2017-08-05T05:17:20.101Z,76.92
2017-08-05T05:17:46.211Z,77.5
2017-08-05T05:18:12.349Z,77.5
2017-08-05T05:18:38.506Z,77.4
2017-08-05T05:19:04.688Z,77.31
2017-08-05T05:19:30.876Z,77.5
2017-08-05T05:19:57.034Z,76.92
2017-08-05T05:20:23.212Z,77.5
2017-08-05T05:20:49.323Z,77.21
2017-08-05T05:21:15.512Z,77.21
2017-08-05T05:21:41.663Z,77.73
2017-08-05T05:22:07.822Z,77.31
2017-08-05T05:22:33.940Z,77.69
2017-08-05T05:23:00.115Z,77.78
2017-08-05T05:23:26.240Z,78.17
2017-08-05T05:23:52.393Z,78.08
2017-08-05T05:24:18.584Z,78.84
2017-08-05T05:24:44.769Z,78.55
2017-08-05T05:25:10.989Z,78.75
2017-08-05T05:25:37.151Z,79.03
2017-08-05T05:26:03.329Z,78.75
2017-08-05T05:26:29.519Z,79.03
2017-08-05T05:26:55.719Z,79.22
2017-08-05T05:27:21.944Z,78.65
2017-08-05T05:27:48.134Z,78.36
2017-08-05T05:28:14.300Z,78.65
2017-08-05T05:28:40.459Z,78.36
2017-08-05T05:29:06.622Z,79.03
2017-08-05T05:29:32.803Z,79.42
2017-08-05T05:29:58.932Z,79.22
2017-08-05T05:30:25.068Z,79.32
2017-08-05T05:30:51.235Z,80.47
2017-08-05T05:31:17.426Z,81.43
2017-08-05T05:31:43.619Z,81.24
2017-08-05T05:32:09.785Z,81.92
2017-08-05T05:32:35.975Z,82.3
2017-08-05T05:33:02.123Z,82.78
2017-08-05T05:33:28.344Z,83.16
2017-08-05T05:33:54.554Z,82.68
2017-08-05T05:34:20.698Z,82.97
2017-08-05T05:34:46.887Z,84.6
2017-08-05T05:35:13.088Z,85.85
2017-08-05T05:35:39.224Z,87.1
2017-08-05T05:36:05.384Z,87.87
2017-08-05T05:36:31.623Z,87.96
2017-08-05T05:36:57.789Z,87.73
2017-08-05T05:37:23.971Z,87.73
2017-08-05T05:37:50.151Z,88.31